createdAt,value
2023-02-12T00:00:42.480Z,5.40
2023-02-12T00:03:09.765Z,5.40
2023-02-12T00:05:40.401Z,5.40
2023-02-12T00:08:08.251Z,5.40
2023-02-12T00:10:35.136Z,5.40
2023-02-12T00:13:02.028Z,5.40
2023-02-12T00:15:28.972Z,5.40
2023-02-12T00:17:55.958Z,5.40
2023-02-12T00:20:22.861Z,5.40
2023-02-12T00:22:49.766Z,5.40
2023-02-12T00:25:17.233Z,5.50
2023-02-12T00:27:44.135Z,5.50
2023-02-12T00:30:11.308Z,5.40
2023-02-12T00:32:38.245Z,5.50
2023-02-12T00:35:05.307Z,5.50
2023-02-12T00:37:32.255Z,5.40
2023-02-12T00:39:59.154Z,5.40
2023-02-12T00:42:26.099Z,5.40
2023-02-12T00:44:53.057Z,5.40
2023-02-12T00:47:20.067Z,5.40
2023-02-12T00:49:50.233Z,5.40
2023-02-12T00:52:17.302Z,5.40
2023-02-12T00:54:44.238Z,5.40
2023-02-12T00:57:11.220Z,5.40
2023-02-12T00:59:40.217Z,5.40
2023-02-12T01:02:07.204Z,5.40
2023-02-12T01:04:34.162Z,5.40
2023-02-12T01:07:01.116Z,5.30
2023-02-12T01:09:28.116Z,5.30
2023-02-12T01:11:55.060Z,5.30
2023-02-12T01:14:22.117Z,5.30
2023-02-12T01:16:49.042Z,5.40
2023-02-12T01:19:16.135Z,5.30
2023-02-12T01:21:43.280Z,5.30
2023-02-12T01:24:10.702Z,5.30
2023-02-12T01:26:37.605Z,5.30
2023-02-12T01:29:06.211Z,5.30
2023-02-12T01:31:34.689Z,5.30
2023-02-12T01:34:02.284Z,5.30
2023-02-12T01:36:29.997Z,5.20
2023-02-12T01:38:58.107Z,5.30
2023-02-12T01:41:35.944Z,5.30
2023-02-12T01:44:19.759Z,5.20
2023-02-12T01:46:47.838Z,5.20
2023-02-12T01:49:20.920Z,5.20
2023-02-12T01:51:50.772Z,5.20
2023-02-12T01:54:20.444Z,5.20
2023-02-12T01:56:47.972Z,5.20
2023-02-12T01:59:15.029Z,5.20
2023-02-12T02:01:42.041Z,5.30
2023-02-12T02:04:12.274Z,5.30
2023-02-12T02:06:49.026Z,5.30
2023-02-12T02:09:17.257Z,5.30
2023-02-12T02:12:02.860Z,5.30
2023-02-12T02:14:32.742Z,5.30
2023-02-12T02:17:14.270Z,5.30
2023-02-12T02:19:41.178Z,5.40
2023-02-12T02:22:16.752Z,5.30
2023-02-12T02:24:53.891Z,5.30
2023-02-12T02:27:24.965Z,5.30
2023-02-12T02:30:04.014Z,5.30
2023-02-12T02:32:32.613Z,5.30
2023-02-12T02:35:02.449Z,5.20
2023-02-12T02:37:40.766Z,5.40
2023-02-12T02:40:34.217Z,5.00
2023-02-12T02:43:04.844Z,5.30
2023-02-12T02:45:34.804Z,5.30
2023-02-12T02:48:06.960Z,5.30
2023-02-12T02:50:35.777Z,5.30
2023-02-12T02:53:08.914Z,5.30
2023-02-12T02:55:38.945Z,5.30
2023-02-12T02:58:13.696Z,5.30
2023-02-12T03:00:45.780Z,5.30
2023-02-12T03:03:22.127Z,5.30
2023-02-12T03:05:50.961Z,5.40
2023-02-12T03:08:24.214Z,5.40
2023-02-12T03:10:56.721Z,5.40
2023-02-12T03:13:26.693Z,5.40
2023-02-12T03:16:11.867Z,5.40
2023-02-12T03:18:43.991Z,5.40
2023-02-12T03:21:13.699Z,5.40
2023-02-12T03:23:43.964Z,5.40
2023-02-12T03:26:18.346Z,5.50
2023-02-12T03:28:45.335Z,5.50
2023-02-12T03:31:31.235Z,5.40
2023-02-12T03:34:07.489Z,5.40
2023-02-12T03:36:34.698Z,5.50
2023-02-12T03:39:07.197Z,5.50
2023-02-12T03:41:50.250Z,5.50
2023-02-12T03:44:29.301Z,5.40
2023-02-12T03:47:25.360Z,5.40
2023-02-12T03:50:06.578Z,5.40
2023-02-12T03:52:33.686Z,5.30
2023-02-12T03:55:00.749Z,5.20
2023-02-12T03:57:31.451Z,5.30
2023-02-12T03:59:59.211Z,5.30
2023-02-12T04:02:26.233Z,5.30
2023-02-12T04:04:53.160Z,5.20
2023-02-12T04:07:20.453Z,5.20
2023-02-12T04:09:47.422Z,5.20
2023-02-12T04:12:35.122Z,5.20
2023-02-12T04:15:05.193Z,5.20
2023-02-12T04:17:32.451Z,5.10
2023-02-12T04:20:17.218Z,5.10
2023-02-12T04:23:02.539Z,5.20
2023-02-12T04:25:38.788Z,5.20
2023-02-12T04:28:06.228Z,5.30
2023-02-12T04:30:37.564Z,5.30
2023-02-12T04:33:05.633Z,5.30
2023-02-12T04:35:32.538Z,5.30
2023-02-12T04:37:59.444Z,5.30
2023-02-12T04:40:26.739Z,5.30
2023-02-12T04:42:53.854Z,5.40
2023-02-12T04:45:22.600Z,5.40
2023-02-12T04:47:49.551Z,5.40
2023-02-12T04:50:16.749Z,5.50
2023-02-12T04:52:43.667Z,5.50
2023-02-12T04:55:10.751Z,5.50
2023-02-12T04:57:37.637Z,5.50
2023-02-12T05:00:05.999Z,5.50
2023-02-12T05:02:36.171Z,5.50
2023-02-12T05:05:03.273Z,5.50
2023-02-12T05:07:30.339Z,5.50
2023-02-12T05:09:57.339Z,5.50
2023-02-12T05:12:24.278Z,5.50
2023-02-12T05:14:51.169Z,5.50
2023-02-12T05:17:18.129Z,5.50
2023-02-12T05:19:45.086Z,5.50
2023-02-12T05:22:13.068Z,5.40
2023-02-12T05:24:40.653Z,5.30
2023-02-12T05:27:09.173Z,5.30
2023-02-12T05:29:36.530Z,5.40
2023-02-12T05:32:04.005Z,5.40
2023-02-12T05:34:31.041Z,5.50
2023-02-12T05:36:57.976Z,5.40
2023-02-12T05:39:25.159Z,5.40
2023-02-12T05:41:52.102Z,5.40
2023-02-12T05:44:19.047Z,5.40
2023-02-12T05:46:46.051Z,5.30
2023-02-12T05:49:13.036Z,5.30
2023-02-12T05:51:39.972Z,5.40
2023-02-12T05:54:07.566Z,5.40
2023-02-12T05:56:35.926Z,5.40
2023-02-12T05:59:06.503Z,5.40
2023-02-12T06:01:35.454Z,5.50
2023-02-12T06:04:03.013Z,5.50
2023-02-12T06:06:30.900Z,5.50
2023-02-12T06:08:58.225Z,5.40
2023-02-12T06:11:25.615Z,5.40
2023-02-12T06:13:52.681Z,5.30
2023-02-12T06:16:22.772Z,5.40
2023-02-12T06:18:49.954Z,5.40
2023-02-12T06:21:17.559Z,5.40
2023-02-12T06:23:44.744Z,5.40
2023-02-12T06:26:11.947Z,5.50
2023-02-12T06:28:38.941Z,5.50
2023-02-12T06:31:05.993Z,5.50
2023-02-12T06:33:35.794Z,5.50
2023-02-12T06:36:03.644Z,5.40
2023-02-12T06:38:30.762Z,5.40
2023-02-12T06:41:01.125Z,5.40
2023-02-12T06:43:28.039Z,5.40
2023-02-12T06:45:55.338Z,5.40
2023-02-12T06:48:24.316Z,5.30
2023-02-12T06:50:51.268Z,5.30
2023-02-12T06:53:18.172Z,5.30
2023-02-12T06:55:45.194Z,5.30
2023-02-12T06:58:12.100Z,5.30
2023-02-12T07:00:39.179Z,5.30
2023-02-12T07:03:06.093Z,5.30
2023-02-12T07:05:33.279Z,5.30
2023-02-12T07:08:00.213Z,5.30
2023-02-12T07:10:27.168Z,5.30
2023-02-12T07:12:54.716Z,5.30
2023-02-12T07:15:21.605Z,5.30
2023-02-12T07:17:48.503Z,5.40
2023-02-12T07:20:15.530Z,5.50
2023-02-12T07:22:42.437Z,5.50
2023-02-12T07:25:09.476Z,5.40
2023-02-12T07:27:37.144Z,5.40
2023-02-12T07:30:05.251Z,5.60
2023-02-12T07:32:32.908Z,5.60
2023-02-12T07:34:59.980Z,5.60
2023-02-12T07:37:27.016Z,5.50
2023-02-12T07:39:53.927Z,5.50
2023-02-12T07:42:21.338Z,5.60
2023-02-12T07:44:50.635Z,5.60
2023-02-12T07:47:17.571Z,5.60
2023-02-12T07:49:44.563Z,5.70
2023-02-12T07:52:13.331Z,5.70
2023-02-12T07:54:40.477Z,5.70
2023-02-12T07:57:07.414Z,5.70
2023-02-12T07:59:34.333Z,5.70
2023-02-12T08:02:01.394Z,5.80
2023-02-12T08:04:28.441Z,5.80
2023-02-12T08:06:56.114Z,5.80
2023-02-12T08:09:24.541Z,5.90
2023-02-12T08:11:51.810Z,5.90
2023-02-12T08:14:19.820Z,6.00
2023-02-12T08:16:47.397Z,6.00
2023-02-12T08:19:20.252Z,6.00
2023-02-12T08:21:52.695Z,6.00
2023-02-12T08:24:19.781Z,6.00
2023-02-12T08:26:46.691Z,6.00
2023-02-12T08:29:15.175Z,6.00
2023-02-12T08:31:44.272Z,6.00
2023-02-12T08:34:21.767Z,6.10
2023-02-12T08:36:49.517Z,6.10
2023-02-12T08:39:17.418Z,6.20
2023-02-12T08:41:44.600Z,6.20
2023-02-12T08:44:12.226Z,6.20
2023-02-12T08:46:40.521Z,6.20
2023-02-12T08:49:11.542Z,6.30
2023-02-12T08:51:40.073Z,6.30
2023-02-12T08:54:07.652Z,6.30
2023-02-12T08:56:35.174Z,6.30
2023-02-12T08:59:04.217Z,6.40
2023-02-12T09:01:32.042Z,6.40
2023-02-12T09:03:59.374Z,6.50
2023-02-12T09:06:27.059Z,6.50
2023-02-12T09:08:54.528Z,6.50
2023-02-12T09:11:40.916Z,6.60
2023-02-12T09:14:10.825Z,6.70
2023-02-12T09:16:38.207Z,6.70
2023-02-12T09:19:05.124Z,6.60
2023-02-12T09:21:32.362Z,6.70
2023-02-12T09:24:00.912Z,6.60
2023-02-12T09:26:27.901Z,6.60
2023-02-12T09:28:55.195Z,6.60
2023-02-12T09:31:26.572Z,6.60
2023-02-12T09:33:55.565Z,6.60
2023-02-12T09:36:22.574Z,6.60
2023-02-12T09:38:49.862Z,6.60
2023-02-12T09:41:19.909Z,6.70
2023-02-12T09:44:13.502Z,6.70
2023-02-12T09:46:49.816Z,6.70
2023-02-12T09:49:26.080Z,6.70
2023-02-12T09:51:54.945Z,6.80
2023-02-12T09:54:29.520Z,6.70
2023-02-12T09:56:57.275Z,6.80
2023-02-12T09:59:27.314Z,6.90
2023-02-12T10:01:54.405Z,7.00
2023-02-12T10:04:22.351Z,6.90
2023-02-12T10:06:53.275Z,6.90
2023-02-12T10:09:35.492Z,6.90
2023-02-12T10:12:11.514Z,6.90
2023-02-12T10:14:42.131Z,7.10
2023-02-12T10:17:18.428Z,6.60
2023-02-12T10:20:01.480Z,6.90
2023-02-12T10:22:56.884Z,6.90
2023-02-12T10:25:28.954Z,7.00
2023-02-12T10:27:57.228Z,7.10
2023-02-12T10:30:27.233Z,6.90
2023-02-12T10:33:13.426Z,7.30
2023-02-12T10:35:43.889Z,7.50
2023-02-12T10:38:21.767Z,7.50
2023-02-12T10:40:50.433Z,7.40
2023-02-12T10:43:17.474Z,7.40
2023-02-12T10:45:44.686Z,7.30
2023-02-12T10:48:24.562Z,7.50
2023-02-12T10:50:56.183Z,7.40
2023-02-12T10:53:24.473Z,7.50
2023-02-12T10:56:06.629Z,7.50
2023-02-12T10:58:33.744Z,7.50
2023-02-12T11:01:14.835Z,7.40
2023-02-12T11:03:41.835Z,7.40
2023-02-12T11:06:16.873Z,7.30
2023-02-12T11:08:44.345Z,7.30
2023-02-12T11:11:13.896Z,7.50
2023-02-12T11:13:44.286Z,7.60
2023-02-12T11:16:11.244Z,7.60
2023-02-12T11:18:38.688Z,7.80
2023-02-12T11:21:05.604Z,7.80
2023-02-12T11:23:37.994Z,7.80
2023-02-12T11:26:23.489Z,7.80
2023-02-12T11:28:56.630Z,7.70
2023-02-12T11:31:28.115Z,7.70
2023-02-12T11:34:04.371Z,7.80
2023-02-12T11:36:33.435Z,7.80
2023-02-12T11:39:00.736Z,7.80
2023-02-12T11:41:36.909Z,7.70
2023-02-12T11:44:19.075Z,7.60
2023-02-12T11:46:51.539Z,7.90
2023-02-12T11:49:21.573Z,8.00
2023-02-12T11:51:49.307Z,8.00
2023-02-12T11:54:21.691Z,8.10
2023-02-12T11:56:48.767Z,8.10
2023-02-12T11:59:34.213Z,8.10
2023-02-12T12:02:09.465Z,8.00
2023-02-12T12:04:37.644Z,7.90
2023-02-12T12:07:14.097Z,8.00
2023-02-12T12:09:46.068Z,8.20
2023-02-12T12:12:24.614Z,8.40
2023-02-12T12:15:16.785Z,8.50
2023-02-12T12:18:13.799Z,8.40
2023-02-12T12:20:55.525Z,8.30
2023-02-12T12:23:29.134Z,8.30
2023-02-12T12:25:58.172Z,8.60
2023-02-12T12:28:35.360Z,8.40
2023-02-12T12:31:13.947Z,8.40
2023-02-12T12:33:43.289Z,8.30
2023-02-12T12:36:14.788Z,7.80
2023-02-12T12:38:47.478Z,8.20
2023-02-12T12:41:21.134Z,8.10
2023-02-12T12:43:54.186Z,8.20
2023-02-12T12:46:27.420Z,8.40
2023-02-12T12:49:03.309Z,8.70
2023-02-12T12:51:33.290Z,8.90
2023-02-12T12:54:06.188Z,8.90
2023-02-12T12:56:51.956Z,8.80
2023-02-12T12:59:37.875Z,8.80
2023-02-12T13:02:07.976Z,8.70
2023-02-12T13:04:56.666Z,8.60
2023-02-12T13:07:39.046Z,8.50
2023-02-12T13:10:15.128Z,8.40
2023-02-12T13:12:48.161Z,8.30
2023-02-12T13:15:33.692Z,8.30
2023-02-12T13:18:00.752Z,8.20
2023-02-12T13:20:34.276Z,8.30
2023-02-12T13:23:04.292Z,8.30
2023-02-12T13:25:35.108Z,8.30
2023-02-12T13:28:02.867Z,8.30
2023-02-12T13:30:33.659Z,8.30
2023-02-12T13:33:09.778Z,8.30
2023-02-12T13:35:40.052Z,8.30
2023-02-12T13:38:09.466Z,8.20
2023-02-12T13:40:36.526Z,8.10
2023-02-12T13:43:22.090Z,8.60
2023-02-12T13:45:49.133Z,8.10
2023-02-12T13:48:19.057Z,8.10
2023-02-12T13:50:50.212Z,8.10
2023-02-12T13:53:17.111Z,8.20
2023-02-12T13:55:57.408Z,8.20
2023-02-12T13:58:34.946Z,8.10
2023-02-12T14:01:10.664Z,8.20
2023-02-12T14:03:38.210Z,8.30
2023-02-12T14:06:20.401Z,8.20
2023-02-12T14:08:50.326Z,8.30
2023-02-12T14:11:22.770Z,8.30
2023-02-12T14:13:55.066Z,8.30
2023-02-12T14:16:31.122Z,8.30
2023-02-12T14:19:16.798Z,8.30
2023-02-12T14:21:43.805Z,8.30
2023-02-12T14:24:29.695Z,8.30
2023-02-12T14:26:56.986Z,8.20
2023-02-12T14:29:25.482Z,8.20
2023-02-12T14:31:52.750Z,8.10
2023-02-12T14:34:22.717Z,8.10
2023-02-12T14:37:09.591Z,8.10
2023-02-12T14:39:36.537Z,8.10
2023-02-12T14:42:29.632Z,8.10
2023-02-12T14:44:59.728Z,8.10
2023-02-12T14:47:29.617Z,8.20
2023-02-12T14:49:59.800Z,8.20
2023-02-12T14:52:27.535Z,8.10
2023-02-12T14:54:56.593Z,8.10
2023-02-12T14:57:31.101Z,8.10
2023-02-12T15:00:04.513Z,8.00
2023-02-12T15:02:36.440Z,8.00
2023-02-12T15:05:13.211Z,8.00
2023-02-12T15:07:49.783Z,8.00
2023-02-12T15:10:20.089Z,7.80
2023-02-12T15:12:47.020Z,7.80
2023-02-12T15:15:33.763Z,7.80
2023-02-12T15:18:03.922Z,7.80
2023-02-12T15:20:35.190Z,7.70
2023-02-12T15:23:03.177Z,7.70
2023-02-12T15:25:32.034Z,7.70
2023-02-12T15:28:07.458Z,7.70
2023-02-12T15:30:35.928Z,7.70
2023-02-12T15:33:04.249Z,7.70
2023-02-12T15:35:39.822Z,7.70
2023-02-12T15:38:10.859Z,7.70
2023-02-12T15:40:37.846Z,7.60
2023-02-12T15:43:05.920Z,7.60
2023-02-12T15:45:35.664Z,7.50
2023-02-12T15:48:09.052Z,7.50
2023-02-12T15:50:45.575Z,7.50
2023-02-12T15:53:13.352Z,7.50
2023-02-12T15:55:42.324Z,7.40
2023-02-12T15:58:20.113Z,7.40
2023-02-12T16:00:50.209Z,7.40
2023-02-12T16:03:25.439Z,7.40
2023-02-12T16:05:53.073Z,7.40
2023-02-12T16:08:21.531Z,7.30
2023-02-12T16:10:49.844Z,7.40
2023-02-12T16:13:19.587Z,7.40
2023-02-12T16:15:46.693Z,7.40
2023-02-12T16:18:24.400Z,7.30
2023-02-12T16:21:01.954Z,7.30
2023-02-12T16:23:28.956Z,7.30
2023-02-12T16:25:56.254Z,7.30
2023-02-12T16:28:33.767Z,7.30
2023-02-12T16:31:08.721Z,7.20
2023-02-12T16:34:01.110Z,7.20
2023-02-12T16:36:30.711Z,7.10
2023-02-12T16:39:02.000Z,7.00
2023-02-12T16:41:31.961Z,6.90
2023-02-12T16:44:01.980Z,6.80
2023-02-12T16:46:29.917Z,6.70
2023-02-12T16:48:58.979Z,6.50
2023-02-12T16:51:33.501Z,6.40
2023-02-12T16:54:01.376Z,6.30
2023-02-12T16:56:29.648Z,6.20
2023-02-12T16:58:58.146Z,6.10
2023-02-12T17:01:26.778Z,6.10
2023-02-12T17:03:54.631Z,6.00
2023-02-12T17:06:23.202Z,5.90
2023-02-12T17:08:50.394Z,5.90
2023-02-12T17:11:18.015Z,5.80
2023-02-12T17:13:45.952Z,5.80
2023-02-12T17:16:21.626Z,5.80
2023-02-12T17:18:56.484Z,5.80
2023-02-12T17:21:23.408Z,5.80
2023-02-12T17:23:50.413Z,5.70
2023-02-12T17:26:17.455Z,5.70
2023-02-12T17:28:44.528Z,5.30
2023-02-12T17:31:11.863Z,5.70
2023-02-12T17:33:38.969Z,5.60
2023-02-12T17:36:06.240Z,5.70
2023-02-12T17:38:33.692Z,5.70
2023-02-12T17:41:00.599Z,5.70
2023-02-12T17:43:27.738Z,5.80
2023-02-12T17:45:55.231Z,5.90
2023-02-12T17:48:24.132Z,5.90
2023-02-12T17:51:00.216Z,5.70
2023-02-12T17:53:27.186Z,5.90
2023-02-12T17:55:54.269Z,5.90
2023-02-12T17:58:21.205Z,6.00
2023-02-12T18:00:48.193Z,6.00
2023-02-12T18:03:15.147Z,6.00
2023-02-12T18:05:42.746Z,6.10
2023-02-12T18:08:10.238Z,6.10
2023-02-12T18:10:43.822Z,6.10
2023-02-12T18:13:11.015Z,6.10
2023-02-12T18:15:39.541Z,6.10
2023-02-12T18:18:06.467Z,6.10
2023-02-12T18:20:34.514Z,6.10
2023-02-12T18:23:01.606Z,6.20
2023-02-12T18:25:28.564Z,6.20
2023-02-12T18:27:55.533Z,6.10
2023-02-12T18:30:22.751Z,6.10
2023-02-12T18:32:49.725Z,6.10
2023-02-12T18:35:16.942Z,6.20
2023-02-12T18:37:43.986Z,6.20
2023-02-12T18:40:11.385Z,6.20
2023-02-12T18:42:38.329Z,6.20
2023-02-12T18:45:05.747Z,6.20
2023-02-12T18:47:32.781Z,6.20
2023-02-12T18:49:59.769Z,6.20
2023-02-12T18:52:26.701Z,6.20
2023-02-12T18:54:53.616Z,6.20
2023-02-12T18:57:20.566Z,6.20
2023-02-12T18:59:47.711Z,6.20
2023-02-12T19:02:14.716Z,6.20
2023-02-12T19:04:41.945Z,6.20
2023-02-12T19:07:09.000Z,6.10
2023-02-12T19:09:36.110Z,6.10
2023-02-12T19:12:03.178Z,6.20
2023-02-12T19:14:30.230Z,6.20
2023-02-12T19:16:57.181Z,6.20
2023-02-12T19:19:24.186Z,6.20
2023-02-12T19:21:51.231Z,6.20
2023-02-12T19:24:18.544Z,6.20
2023-02-12T19:26:45.577Z,5.70
2023-02-12T19:29:13.097Z,6.10
2023-02-12T19:31:41.635Z,6.20
2023-02-12T19:34:14.711Z,6.20
2023-02-12T19:36:42.184Z,6.20
2023-02-12T19:39:09.160Z,6.20
2023-02-12T19:41:41.200Z,6.20
2023-02-12T19:44:12.758Z,6.20
2023-02-12T19:46:40.650Z,6.20
2023-02-12T19:49:08.476Z,6.10
2023-02-12T19:51:35.992Z,6.00
2023-02-12T19:54:04.749Z,6.00
2023-02-12T19:56:31.760Z,6.10
2023-02-12T19:58:58.914Z,6.10
2023-02-12T20:01:26.324Z,6.10
2023-02-12T20:03:53.318Z,6.10
2023-02-12T20:06:22.328Z,6.10
2023-02-12T20:08:49.897Z,6.10
2023-02-12T20:11:18.840Z,6.10
2023-02-12T20:13:45.905Z,6.00
2023-02-12T20:16:16.183Z,6.00
2023-02-12T20:18:47.182Z,6.10
2023-02-12T20:21:15.957Z,6.10
2023-02-12T20:23:43.001Z,6.10
2023-02-12T20:26:12.180Z,6.00
2023-02-12T20:28:39.172Z,5.80
2023-02-12T20:31:13.901Z,6.00
2023-02-12T20:33:41.286Z,6.00
2023-02-12T20:36:08.795Z,6.00
2023-02-12T20:38:35.859Z,6.00
2023-02-12T20:41:03.825Z,6.00
2023-02-12T20:43:31.872Z,6.00
2023-02-12T20:46:09.012Z,6.00
2023-02-12T20:48:36.872Z,5.90
2023-02-12T20:51:05.082Z,5.90
2023-02-12T20:53:33.081Z,5.90
2023-02-12T20:56:08.021Z,5.90
2023-02-12T20:58:35.343Z,5.90
2023-02-12T21:01:13.071Z,5.80
2023-02-12T21:03:40.452Z,5.80
2023-02-12T21:06:07.443Z,5.80
2023-02-12T21:08:38.017Z,5.80
2023-02-12T21:11:07.964Z,5.80
2023-02-12T21:13:35.082Z,5.80
2023-02-12T21:16:12.852Z,5.80
2023-02-12T21:18:39.825Z,5.80
2023-02-12T21:21:20.382Z,5.20
2023-02-12T21:23:47.565Z,5.80
2023-02-12T21:26:15.936Z,5.80
2023-02-12T21:28:43.134Z,5.90
2023-02-12T21:31:14.506Z,5.80
2023-02-12T21:33:42.552Z,5.90
2023-02-12T21:36:11.044Z,5.90
2023-02-12T21:38:40.259Z,5.90
2023-02-12T21:41:11.323Z,5.80
2023-02-12T21:43:39.381Z,5.80
2023-02-12T21:46:06.931Z,5.80
2023-02-12T21:48:34.564Z,5.80
2023-02-12T21:51:02.058Z,5.80
2023-02-12T21:53:29.505Z,5.80
2023-02-12T21:55:56.770Z,5.90
2023-02-12T21:58:23.940Z,5.90
2023-02-12T22:00:51.015Z,5.90
2023-02-12T22:03:19.618Z,5.80
2023-02-12T22:05:50.429Z,5.90
2023-02-12T22:08:17.658Z,5.90
2023-02-12T22:10:44.578Z,5.90
2023-02-12T22:13:11.544Z,6.10
2023-02-12T22:15:38.548Z,5.90
2023-02-12T22:18:05.505Z,5.80
2023-02-12T22:20:32.531Z,5.80
2023-02-12T22:22:59.565Z,5.80
2023-02-12T22:25:29.128Z,5.80
2023-02-12T22:27:56.110Z,5.70
2023-02-12T22:30:23.139Z,5.70
2023-02-12T22:32:50.162Z,5.70
2023-02-12T22:35:17.205Z,5.70
2023-02-12T22:37:44.373Z,5.80
2023-02-12T22:40:11.601Z,5.70
2023-02-12T22:42:39.493Z,5.70
2023-02-12T22:45:06.589Z,5.70
2023-02-12T22:47:33.566Z,5.70
2023-02-12T22:50:00.840Z,5.70
2023-02-12T22:52:28.296Z,5.70
2023-02-12T22:54:55.347Z,5.70
2023-02-12T22:57:22.341Z,5.70
2023-02-12T22:59:49.341Z,5.70
2023-02-12T23:02:16.325Z,5.70
2023-02-12T23:04:43.352Z,5.70
2023-02-12T23:07:10.263Z,5.70
2023-02-12T23:09:37.284Z,5.60
2023-02-12T23:12:07.642Z,5.60
2023-02-12T23:14:36.186Z,5.70
2023-02-12T23:17:04.210Z,5.60
2023-02-12T23:19:31.408Z,5.60
2023-02-12T23:21:58.406Z,5.60
2023-02-12T23:24:26.013Z,5.60
2023-02-12T23:26:53.509Z,5.60
2023-02-12T23:29:20.628Z,5.60
2023-02-12T23:31:47.772Z,5.60
2023-02-12T23:34:14.844Z,5.50
2023-02-12T23:36:41.754Z,5.50
2023-02-12T23:39:10.733Z,5.50
2023-02-12T23:41:37.880Z,5.70
2023-02-12T23:44:05.125Z,5.50
2023-02-12T23:46:32.072Z,5.50
2023-02-12T23:48:59.124Z,5.50
2023-02-12T23:51:26.058Z,5.50
2023-02-12T23:53:52.998Z,5.50
2023-02-12T23:56:19.962Z,5.50
2023-02-12T23:58:46.930Z,5.50
